Time;durP1;ratioP1;P1;durP2;ratioP2;P2;SDS_P1;SDS_P2;PMS_P1;PMS_P2;Temp;Humidity;BMP_temperature;BMP_pressure;BME280_temperature;BME280_humidity;BME280_pressure;Samples;Min_cycle;Max_cycle;Signal;HPM_P1;HPM_P2
2023/01/14 00:01:01;;;;;;;;;;;;;;;4.07;100.00;100779.13;5555908;32;34233;-73
2023/01/14 00:04:10;;;;;;;;;;;;;;;4.08;100.00;100772.09;5554871;32;33263;-74
2023/01/14 00:07:16;;;;;;;;;;;;;;;4.03;100.00;100780.31;5555755;32;34319;-75
2023/01/14 00:10:25;;;;;;;;;;;;;;;3.98;100.00;100781.62;5555731;32;33599;-75
2023/01/14 00:13:35;;;;;;;;;;;;;;;3.99;100.00;100789.37;5555507;32;34814;-75
2023/01/14 00:16:43;;;;;;;;;;;;;;;4.01;100.00;100803.25;5568791;32;34155;-74
2023/01/14 00:19:47;;;;;;;;;;;;;;;4.00;100.00;100816.47;5555108;32;34195;-74
2023/01/14 00:22:51;;;;;;;;;;;;;;;4.06;100.00;100813.41;5542213;32;33811;-75
2023/01/14 00:26:00;;;;;;;;;;;;;;;4.03;100.00;100805.72;5554487;32;34818;-75
2023/01/14 00:29:04;;;;;;;;;;;;;;;4.07;100.00;100802.75;5568651;31;34817;-75
2023/01/14 00:32:07;;;;;;;;;;;;;;;4.11;100.00;100803.37;5554996;32;34856;-73
2023/01/14 00:35:11;;;;;;;;;;;;;;;4.12;100.00;100794.53;5568176;32;34913;-75
2023/01/14 00:38:16;;;;;;;;;;;;;;;4.11;100.00;100798.97;5568600;32;34554;-75
2023/01/14 00:41:26;;;;;;;;;;;;;;;4.17;100.00;100801.09;5554567;32;34952;-75
2023/01/14 00:44:33;;;;;;;;;;;;;;;4.14;100.00;100798.72;5553834;32;35755;-75
2023/01/14 00:47:38;;;;;;;;;;;;;;;4.06;100.00;100795.03;5568587;32;34206;-75
2023/01/14 00:50:46;;;;;;;;;;;;;;;4.03;100.00;100795.22;5568646;32;34300;-77
2023/01/14 00:53:51;;;;;;;;;;;;;;;4.02;100.00;100797.00;5568519;32;34852;-75
2023/01/14 00:56:57;;;;;;;;;;;;;;;4.00;100.00;100798.09;5568415;32;34818;-75
2023/01/14 01:00:01;;;;;;;;;;;;;;;3.98;100.00;100810.50;5568534;32;34718;-75
2023/01/14 01:03:09;;;;;;;;;;;;;;;4.05;100.00;100801.22;5555337;32;34894;-75
2023/01/14 01:06:20;;;;;;;;;;;;;;;4.01;100.00;100797.16;5554561;32;34005;-75
2023/01/14 01:09:28;;;;;;;;;;;;;;;4.01;100.00;100797.16;5555100;32;34460;-75
2023/01/14 01:12:34;;;;;;;;;;;;;;;3.98;100.00;100800.81;5568480;32;34020;-75
2023/01/14 01:15:40;;;;;;;;;;;;;;;4.01;100.00;100789.28;5554842;32;34195;-74
2023/01/14 01:18:51;;;;;;;;;;;;;;;4.03;100.00;100790.81;5555237;32;34556;-75
2023/01/14 01:21:58;;;;;;;;;;;;;;;4.02;100.00;100796.22;5568396;32;34474;-75
2023/01/14 01:25:06;;;;;;;;;;;;;;;4.09;100.00;100792.16;5568177;32;34804;-75
2023/01/14 01:28:12;;;;;;;;;;;;;;;4.07;100.00;100794.88;5553496;32;34667;-75
2023/01/14 01:31:22;;;;;;;;;;;;;;;4.03;100.00;100801.31;5568065;32;33976;-74
2023/01/14 01:34:30;;;;;;;;;;;;;;;4.04;100.00;100802.16;5554730;32;34881;-74
2023/01/14 01:37:39;;;;;;;;;;;;;;;4.03;100.00;100793.44;5567853;32;34716;-73
2023/01/14 01:40:47;;;;;;;;;;;;;;;4.03;100.00;100792.59;5568130;32;34547;-73
2023/01/14 01:44:03;;;;;;;;;;;;;;;4.05;100.00;100788.94;5568096;32;34419;-74
2023/01/14 01:47:09;;;;;;;;;;;;;;;4.13;100.00;100796.22;5567011;32;34202;-74
2023/01/14 01:50:15;;;;;;;;;;;;;;;4.11;100.00;100791.09;5567978;32;34343;-73
2023/01/14 01:53:22;;;;;;;;;;;;;;;4.09;100.00;100795.63;5568000;32;34674;-73
2023/01/14 01:56:34;;;;;;;;;;;;;;;4.12;100.00;100800.63;5555114;32;34557;-74
2023/01/14 01:59:44;;;;;;;;;;;;;;;4.08;100.00;100787.84;5554695;32;34625;-75
2023/01/14 02:02:59;;;;;;;;;;;;;;;4.05;100.00;100803.84;5567983;32;34020;-74
2023/01/14 02:06:08;;;;;;;;;;;;;;;4.04;100.00;100808.25;5554796;32;34401;-73
2023/01/14 02:09:17;;;;;;;;;;;;;;;4.05;100.00;100816.97;5568018;32;34253;-73
2023/01/14 02:12:25;;;;;;;;;;;;;;;4.04;100.00;100807.41;5554534;32;34187;-73
2023/01/14 02:15:36;;;;;;;;;;;;;;;4.02;100.00;100806.72;5567465;32;34983;-73
2023/01/14 02:18:42;;;;;;;;;;;;;;;4.06;100.00;100813.41;5541226;32;34315;-73
2023/01/14 02:22:05;;;;;;;;;;;;;;;4.13;100.00;100807.56;5567787;32;33941;-73
2023/01/14 02:25:19;;;;;;;;;;;;;;;4.07;100.00;100813.25;5567684;32;33920;-73
2023/01/14 02:28:31;;;;;;;;;;;;;;;4.09;100.00;100808.75;5567568;31;34351;-74
2023/01/14 02:31:46;;;;;;;;;;;;;;;4.09;100.00;100803.50;5567667;32;34811;-73
2023/01/14 02:35:04;;;;;;;;;;;;;;;4.06;100.00;100808.97;5567661;32;33679;-73
2023/01/14 02:38:17;;;;;;;;;;;;;;;4.02;100.00;100807.50;5567510;32;34953;-73
2023/01/14 02:45:02;;;;;;;;;;;;;;;4.07;100.00;100810.63;5567528;32;34409;-73
2023/01/14 02:48:11;;;;;;;;;;;;;;;3.96;100.00;100815.88;5554104;32;34307;-74
2023/01/14 02:51:20;;;;;;;;;;;;;;;3.92;100.00;100817.06;5567456;32;34286;-74
2023/01/14 02:54:29;;;;;;;;;;;;;;;3.96;100.00;100823.75;5554136;32;33847;-73
2023/01/14 02:57:39;;;;;;;;;;;;;;;3.99;100.00;100822.66;5566876;32;34361;-73
2023/01/14 03:01:05;;;;;;;;;;;;;;;4.03;100.00;100824.94;5540868;32;34591;-74
2023/01/14 03:04:31;;;;;;;;;;;;;;;4.08;100.00;100829.84;5553302;32;35438;-73
2023/01/14 03:08:03;;;;;;;;;;;;;;;4.13;100.00;100828.56;5567221;32;35428;-73
2023/01/14 03:11:11;;;;;;;;;;;;;;;4.05;100.00;100836.19;5553948;32;34308;-73
2023/01/14 03:14:21;;;;;;;;;;;;;;;4.06;100.00;100832.63;5553414;32;34042;-74
2023/01/14 03:17:40;;;;;;;;;;;;;;;4.04;100.00;100842.38;5566966;32;34321;-73
2023/01/14 03:21:03;;;;;;;;;;;;;;;4.01;100.00;100837.37;5553853;32;34663;-73
2023/01/14 03:24:13;;;;;;;;;;;;;;;3.98;100.00;100848.06;5566850;32;34620;-74
2023/01/14 03:27:23;;;;;;;;;;;;;;;3.93;100.00;100842.34;5553711;32;33716;-73
2023/01/14 03:30:35;;;;;;;;;;;;;;;3.89;100.00;100843.53;5553391;32;35002;-73
2023/01/14 03:33:49;;;;;;;;;;;;;;;3.90;100.00;100848.66;5566825;32;34816;-73
2023/01/14 03:36:58;;;;;;;;;;;;;;;3.78;100.00;100853.97;5553355;32;34318;-73
2023/01/14 03:40:08;;;;;;;;;;;;;;;3.72;100.00;100859.69;5553373;32;34294;-73
2023/01/14 03:43:18;;;;;;;;;;;;;;;3.60;100.00;100848.28;5566533;32;34907;-73
2023/01/14 03:46:26;;;;;;;;;;;;;;;3.43;100.00;100851.31;5566596;32;34515;-73
2023/01/14 03:49:36;;;;;;;;;;;;;;;3.32;100.00;100862.56;5553234;32;34690;-74
2023/01/14 03:52:48;;;;;;;;;;;;;;;3.16;100.00;100872.44;5553074;32;34641;-74
2023/01/14 03:55:57;;;;;;;;;;;;;;;3.05;100.00;100869.75;5551990;32;32866;-73
2023/01/14 03:59:11;;;;;;;;;;;;;;;2.99;100.00;100865.78;5566286;32;33889;-74
2023/01/14 04:02:17;;;;;;;;;;;;;;;2.92;100.00;100876.78;5540289;32;34202;-74
2023/01/14 04:05:27;;;;;;;;;;;;;;;2.95;100.00;100873.97;5566199;32;34020;-74
2023/01/14 04:08:35;;;;;;;;;;;;;;;2.99;100.00;100868.41;5566639;32;34334;-74
2023/01/14 04:11:44;;;;;;;;;;;;;;;3.02;100.00;100869.97;5568934;32;34307;-75
2023/01/14 04:18:18;;;;;;;;;;;;;;;3.01;100.00;100871.75;5568865;32;34033;-73
2023/01/14 04:21:26;;;;;;;;;;;;;;;3.03;100.00;100869.03;5568869;32;34252;-73
2023/01/14 04:24:32;;;;;;;;;;;;;;;3.13;100.00;100875.31;5555349;32;34299;-73
2023/01/14 04:27:39;;;;;;;;;;;;;;;3.13;100.00;100877.09;5568736;32;34280;-73
2023/01/14 04:30:49;;;;;;;;;;;;;;;3.19;100.00;100876.66;5568680;32;34950;-73
2023/01/14 04:33:55;;;;;;;;;;;;;;;3.15;100.00;100880.44;5568695;32;34683;-74
2023/01/14 04:37:03;;;;;;;;;;;;;;;3.27;100.00;100885.66;5568608;32;34441;-73
2023/01/14 04:40:10;;;;;;;;;;;;;;;3.37;100.00;100885.84;5568668;32;35054;-73
2023/01/14 04:43:19;;;;;;;;;;;;;;;3.30;100.00;100880.19;5568642;32;33787;-73
2023/01/14 04:46:27;;;;;;;;;;;;;;;3.38;100.00;100892.75;5568595;32;35089;-73
2023/01/14 04:49:36;;;;;;;;;;;;;;;3.39;100.00;100889.16;5554470;32;33834;-74
2023/01/14 04:52:48;;;;;;;;;;;;;;;3.32;100.00;100896.66;5543351;32;34494;-73
2023/01/14 04:55:55;;;;;;;;;;;;;;;3.41;100.00;100897.78;5554533;32;34093;-73
2023/01/14 04:59:03;;;;;;;;;;;;;;;3.38;100.00;100906.72;5554916;32;34857;-73
2023/01/14 05:02:11;;;;;;;;;;;;;;;3.40;100.00;100909.19;5555137;32;34930;-74
2023/01/14 05:05:17;;;;;;;;;;;;;;;3.35;100.00;100916.56;5568304;32;34894;-73
2023/01/14 05:08:26;;;;;;;;;;;;;;;3.31;100.00;100908.06;5553904;32;33095;-74
2023/01/14 05:11:37;;;;;;;;;;;;;;;3.38;100.00;100906.72;5554553;32;33103;-74
2023/01/14 05:14:47;;;;;;;;;;;;;;;3.37;100.00;100914.69;5568133;32;34710;-73
2023/01/14 05:17:53;;;;;;;;;;;;;;;3.23;100.00;100918.28;5568244;32;34484;-73
2023/01/14 05:21:04;;;;;;;;;;;;;;;3.24;100.00;100917.34;5568130;32;34793;-74
2023/01/14 05:24:11;;;;;;;;;;;;;;;3.20;100.00;100913.22;5567894;32;35089;-73
2023/01/14 05:27:17;;;;;;;;;;;;;;;3.15;100.00;100917.97;5568038;32;34190;-73
2023/01/14 05:30:26;;;;;;;;;;;;;;;3.16;100.00;100913.56;5553977;32;33055;-74
2023/01/14 05:33:33;;;;;;;;;;;;;;;3.04;100.00;100920.50;5568228;32;34312;-75
2023/01/14 05:36:41;;;;;;;;;;;;;;;3.01;100.00;100920.72;5568162;32;34655;-72
2023/01/14 05:39:51;;;;;;;;;;;;;;;2.93;100.00;100925.66;5568099;32;34392;-73
2023/01/14 05:46:25;;;;;;;;;;;;;;;2.92;100.00;100927.44;5568159;32;34565;-74
2023/01/14 05:49:35;;;;;;;;;;;;;;;2.83;100.00;100932.47;5568172;32;33788;-75
2023/01/14 05:52:45;;;;;;;;;;;;;;;2.85;100.00;100933.22;5567923;32;33919;-73
2023/01/14 05:55:53;;;;;;;;;;;;;;;2.90;100.00;100941.59;5567695;32;34922;-74
2023/01/14 05:59:01;;;;;;;;;;;;;;;2.93;100.00;100941.38;5554517;32;34094;-74
2023/01/14 06:09:03;;;;;;;;;;;;;;;2.71;100.00;100944.59;5567824;32;34636;-74
2023/01/14 06:12:09;;;;;;;;;;;;;;;2.75;100.00;100940.84;5567861;32;34971;-75
2023/01/14 06:15:16;;;;;;;;;;;;;;;2.79;100.00;100952.81;5546690;32;34311;-74
2023/01/14 06:18:24;;;;;;;;;;;;;;;2.78;100.00;100952.91;5547349;32;34080;-74
2023/01/14 06:21:33;;;;;;;;;;;;;;;2.74;100.00;100951.44;5547310;32;35242;-74
2023/01/14 06:24:41;;;;;;;;;;;;;;;2.82;100.00;100946.50;5548251;32;34057;-73
2023/01/14 06:27:49;;;;;;;;;;;;;;;2.72;100.00;100950.69;5547190;32;34405;-74
2023/01/14 06:30:59;;;;;;;;;;;;;;;2.61;100.00;100956.66;5547298;32;34844;-75
2023/01/14 06:34:06;;;;;;;;;;;;;;;2.71;100.00;100960.31;5547869;32;34201;-74
2023/01/14 06:37:12;;;;;;;;;;;;;;;2.62;100.00;100969.63;5548053;32;34577;-74
2023/01/14 06:40:23;;;;;;;;;;;;;;;2.61;100.00;100960.09;5548061;32;34666;-75
2023/01/14 06:43:32;;;;;;;;;;;;;;;2.70;100.00;100960.44;5548025;32;34226;-74
2023/01/14 06:46:41;;;;;;;;;;;;;;;2.71;100.00;100962.13;5547912;32;34400;-74
2023/01/14 06:49:51;;;;;;;;;;;;;;;2.71;100.00;100965.56;5547862;32;34316;-74
2023/01/14 06:53:02;;;;;;;;;;;;;;;2.71;100.00;100970.00;5548086;32;34507;-74
2023/01/14 06:56:11;;;;;;;;;;;;;;;2.74;100.00;100969.78;5547062;32;34400;-74
2023/01/14 06:59:18;;;;;;;;;;;;;;;2.74;100.00;100981.09;5547102;32;35104;-74
2023/01/14 07:02:25;;;;;;;;;;;;;;;2.67;100.00;100971.94;5518088;32;33719;-74
2023/01/14 07:05:33;;;;;;;;;;;;;;;2.52;100.00;100979.06;5526773;32;33632;-74
2023/01/14 07:08:42;;;;;;;;;;;;;;;2.48;100.00;100979.34;5528101;32;33964;-74
2023/01/14 07:11:51;;;;;;;;;;;;;;;2.35;100.00;100976.72;5528345;32;34595;-74
2023/01/14 07:15:00;;;;;;;;;;;;;;;2.28;100.00;100988.53;5531162;32;33343;-73
2023/01/14 07:18:07;;;;;;;;;;;;;;;2.24;100.00;100988.81;5527275;32;34601;-74
2023/01/14 07:21:15;;;;;;;;;;;;;;;2.27;100.00;100991.25;5532385;32;33307;-74
2023/01/14 07:24:22;;;;;;;;;;;;;;;2.30;100.00;100993.66;5547231;32;34568;-74
2023/01/14 07:27:29;;;;;;;;;;;;;;;2.31;100.00;100997.97;5534053;32;34787;-74
2023/01/14 07:30:38;;;;;;;;;;;;;;;2.29;100.00;100992.81;5535826;32;34496;-74
2023/01/14 07:33:46;;;;;;;;;;;;;;;2.24;100.00;101005.38;5533937;32;34595;-74
2023/01/14 07:36:55;;;;;;;;;;;;;;;2.20;100.00;101006.50;5547256;32;34265;-74
2023/01/14 07:40:03;;;;;;;;;;;;;;;2.23;100.00;101011.53;5547080;32;34049;-74
2023/01/14 07:43:10;;;;;;;;;;;;;;;2.26;100.00;101018.38;5533362;32;33140;-75
2023/01/14 07:46:16;;;;;;;;;;;;;;;2.24;100.00;101015.84;5549714;32;34079;-76
2023/01/14 07:49:24;;;;;;;;;;;;;;;2.22;100.00;101016.91;5535353;32;34046;-74
2023/01/14 07:52:32;;;;;;;;;;;;;;;2.25;100.00;101027.16;5535631;32;33065;-75
2023/01/14 07:55:39;;;;;;;;;;;;;;;2.22;100.00;101022.12;5523146;32;32740;-74
2023/01/14 07:58:48;;;;;;;;;;;;;;;2.24;100.00;101028.09;5533994;32;34957;-75
2023/01/14 08:01:53;;;;;;;;;;;;;;;2.28;100.00;101029.56;5549342;32;34784;-75
2023/01/14 08:05:01;;;;;;;;;;;;;;;2.26;100.00;101029.69;5535404;32;34853;-76
2023/01/14 08:08:07;;;;;;;;;;;;;;;2.25;100.00;101041.09;5535567;32;33716;-75
2023/01/14 08:11:15;;;;;;;;;;;;;;;2.27;100.00;101033.16;5549466;32;34430;-75
2023/01/14 08:14:21;;;;;;;;;;;;;;;2.29;100.00;101032.09;5555881;32;34099;-75
2023/01/14 08:17:28;;;;;;;;;;;;;;;2.32;100.00;101021.44;5568903;32;34305;-75
2023/01/14 08:20:36;;;;;;;;;;;;;;;2.36;100.00;101028.16;5568737;32;34645;-75
2023/01/14 08:23:44;;;;;;;;;;;;;;;2.36;100.00;101030.78;5554537;32;33715;-75
2023/01/14 08:26:51;;;;;;;;;;;;;;;2.46;100.00;101024.00;5555161;32;33625;-75
2023/01/14 08:30:00;;;;;;;;;;;;;;;2.55;100.00;101028.62;5554705;32;33063;-75
2023/01/14 08:33:09;;;;;;;;;;;;;;;2.63;100.00;101036.81;5568107;32;34160;-75
2023/01/14 08:36:16;;;;;;;;;;;;;;;2.74;100.00;101032.66;5568668;32;34793;-74
2023/01/14 08:39:23;;;;;;;;;;;;;;;2.84;100.00;101029.31;5568611;32;34272;-75
2023/01/14 08:42:32;;;;;;;;;;;;;;;2.99;100.00;101043.19;5566468;32;34114;-76
2023/01/14 08:45:41;;;;;;;;;;;;;;;3.11;100.00;101039.72;5554694;32;34495;-75
2023/01/14 08:48:49;;;;;;;;;;;;;;;3.18;100.00;101041.00;5567732;32;33994;-76
2023/01/14 08:51:58;;;;;;;;;;;;;;;3.23;100.00;101048.53;5568449;32;34140;-76
2023/01/14 08:55:06;;;;;;;;;;;;;;;3.31;100.00;101047.06;5554891;32;34380;-76
2023/01/14 08:58:13;;;;;;;;;;;;;;;3.32;100.00;101061.00;5555206;32;34321;-76
2023/01/14 09:01:21;;;;;;;;;;;;;;;3.29;100.00;101058.62;5567248;31;34855;-76
2023/01/14 09:04:28;;;;;;;;;;;;;;;3.27;100.00;101052.62;5553126;32;35243;-76
2023/01/14 09:17:47;;;;;;;;;;;;;;;3.88;100.00;101067.56;5568327;32;34986;-76
2023/01/14 09:20:58;;;;;;;;;;;;;;;4.04;100.00;101069.94;5567712;32;34140;-76
2023/01/14 09:24:06;;;;;;;;;;;;;;;4.28;100.00;101071.66;5568350;32;34942;-76
2023/01/14 09:27:11;;;;;;;;;;;;;;;4.35;100.00;101061.56;5551664;32;34832;-76
2023/01/14 09:30:19;;;;;;;;;;;;;;;4.48;100.00;101064.13;5568092;32;33610;-77
2023/01/14 09:33:27;;;;;;;;;;;;;;;4.51;100.00;101063.87;5554838;32;34755;-76
2023/01/14 09:36:33;;;;;;;;;;;;;;;4.52;100.00;101058.53;5552408;32;34686;-75
2023/01/14 09:39:39;;;;;;;;;;;;;;;4.52;100.00;101057.69;5554216;32;34896;-75
2023/01/14 09:42:48;;;;;;;;;;;;;;;4.65;100.00;101059.28;5568336;32;34556;-75
2023/01/14 09:45:59;;;;;;;;;;;;;;;4.73;100.00;101061.38;5554450;32;33349;-76
2023/01/14 09:49:05;;;;;;;;;;;;;;;4.82;100.00;101052.78;5540966;32;33801;-76
2023/01/14 09:52:34;;;;;;;;;;;;;;;5.00;100.00;101055.81;5553558;32;32701;-76
2023/01/14 09:55:44;;;;;;;;;;;;;;;4.97;100.00;101042.91;5567889;32;34813;-76
2023/01/14 09:58:50;;;;;;;;;;;;;;;5.01;100.00;101058.34;5567665;32;34191;-75
2023/01/14 10:01:55;;;;;;;;;;;;;;;5.14;100.00;101037.19;5567305;32;34412;-76
2023/01/14 10:05:16;;;;;;;;;;;;;;;5.33;100.00;101037.47;5567549;32;34615;-76
2023/01/14 10:08:24;;;;;;;;;;;;;;;5.57;100.00;101037.34;5553299;32;34101;-76
2023/01/14 10:11:42;;;;;;;;;;;;;;;5.86;100.00;101038.53;5567697;32;34238;-76
2023/01/14 10:14:50;;;;;;;;;;;;;;;6.45;100.00;101025.88;5553763;32;34667;-77
2023/01/14 10:18:09;;;;;;;;;;;;;;;6.75;100.00;101021.66;5553764;32;33276;-76
2023/01/14 10:21:28;;;;;;;;;;;;;;;6.79;100.00;101018.62;5567334;32;34858;-76
2023/01/14 10:24:35;;;;;;;;;;;;;;;6.78;100.00;101018.75;5553776;32;34097;-76
2023/01/14 10:27:40;;;;;;;;;;;;;;;6.94;100.00;101027.91;5567182;32;34179;-76
2023/01/14 10:30:48;;;;;;;;;;;;;;;7.02;100.00;101023.81;5566841;32;34255;-75
2023/01/14 10:33:53;;;;;;;;;;;;;;;7.19;100.00;101018.75;5566381;32;34347;-74
2023/01/14 10:36:59;;;;;;;;;;;;;;;7.26;100.00;101022.53;5552740;32;32849;-75
2023/01/14 10:40:04;;;;;;;;;;;;;;;7.24;100.00;101027.13;5566523;32;34887;-76
2023/01/14 10:43:34;;;;;;;;;;;;;;;7.27;100.00;101028.66;5565278;32;33820;-76
2023/01/14 10:46:42;;;;;;;;;;;;;;;7.50;100.00;101032.00;5553554;32;34658;-76
2023/01/14 10:49:51;;;;;;;;;;;;;;;7.58;100.00;101014.50;5552495;32;34327;-75
2023/01/14 10:53:13;;;;;;;;;;;;;;;7.24;100.00;101019.22;5566919;32;34209;-75
2023/01/14 10:56:19;;;;;;;;;;;;;;;6.91;100.00;101016.78;5567010;32;34242;-74
2023/01/14 10:59:32;;;;;;;;;;;;;;;6.83;100.00;101021.84;5566660;32;33929;-75
2023/01/14 11:02:50;;;;;;;;;;;;;;;6.74;100.00;101020.81;5552763;32;33831;-74
2023/01/14 11:05:57;;;;;;;;;;;;;;;6.74;100.00;101017.34;5540226;32;33581;-74
2023/01/14 11:09:03;;;;;;;;;;;;;;;6.83;100.00;101003.37;5553638;32;34920;-74
2023/01/14 11:12:24;;;;;;;;;;;;;;;6.87;100.00;100992.44;5553324;32;34428;-75
2023/01/14 11:15:33;;;;;;;;;;;;;;;6.81;100.00;101000.06;5554766;32;34871;-75
2023/01/14 11:18:47;;;;;;;;;;;;;;;6.95;100.00;101005.00;5552562;32;33336;-75
2023/01/14 11:21:55;;;;;;;;;;;;;;;6.92;100.00;100998.19;5542745;32;34260;-75
2023/01/14 11:25:03;;;;;;;;;;;;;;;7.01;100.00;100986.03;5555862;32;34131;-75
2023/01/14 11:28:15;;;;;;;;;;;;;;;7.15;100.00;100977.78;5569168;32;34407;-74
2023/01/14 11:31:30;;;;;;;;;;;;;;;7.15;100.00;100972.50;5568947;32;34255;-75
2023/01/14 11:34:45;;;;;;;;;;;;;;;7.15;100.00;100971.66;5555701;32;34887;-74
2023/01/14 11:37:53;;;;;;;;;;;;;;;7.05;100.00;100979.53;5568961;32;34408;-74
2023/01/14 11:44:28;;;;;;;;;;;;;;;7.25;100.00;100980.47;5568506;32;35042;-75
2023/01/14 11:47:44;;;;;;;;;;;;;;;7.38;100.00;100984.56;5568681;32;34629;-74
2023/01/14 11:50:58;;;;;;;;;;;;;;;7.48;100.00;100986.37;5569154;32;34613;-74
2023/01/14 11:54:15;;;;;;;;;;;;;;;7.46;100.00;100985.69;5555081;32;34308;-74
2023/01/14 11:57:22;;;;;;;;;;;;;;;7.50;100.00;100987.94;5554893;32;34178;-75
2023/01/14 12:00:32;;;;;;;;;;;;;;;7.45;100.00;100981.38;5568180;32;34620;-74
2023/01/14 12:03:52;;;;;;;;;;;;;;;7.55;100.00;100982.25;5568759;32;34921;-75
2023/01/14 12:06:59;;;;;;;;;;;;;;;7.58;100.00;100981.97;5541151;32;32911;-75
2023/01/14 12:10:13;;;;;;;;;;;;;;;7.68;100.00;100982.84;5567677;32;34342;-75
2023/01/14 12:16:56;;;;;;;;;;;;;;;7.73;100.00;100956.88;5568759;32;34075;-74
2023/01/14 12:20:11;;;;;;;;;;;;;;;8.12;100.00;100961.25;5555066;32;33972;-74
2023/01/14 12:23:21;;;;;;;;;;;;;;;8.50;100.00;100967.56;5568071;32;34951;-75
2023/01/14 12:26:39;;;;;;;;;;;;;;;8.94;100.00;100948.41;5568527;32;34887;-73
2023/01/14 12:29:49;;;;;;;;;;;;;;;9.12;100.00;100948.50;5567408;32;34263;-75
2023/01/14 12:33:02;;;;;;;;;;;;;;;9.04;100.00;100956.31;5568430;32;34619;-74
2023/01/14 12:36:20;;;;;;;;;;;;;;;8.94;100.00;100952.88;5554653;32;33275;-74
2023/01/14 12:45:41;;;;;;;;;;;;;;;8.76;100.00;100934.25;5568293;32;34245;-73
2023/01/14 12:46:37;;;;;;;;;;;;;;;8.90;100.00;100938.25;5568437;32;34224;-74
2023/01/14 12:49:46;;;;;;;;;;;;;;;8.99;100.00;100940.03;5567433;32;34922;-75
2023/01/14 12:52:54;;;;;;;;;;;;;;;9.07;100.00;100934.84;5553962;32;33593;-74
2023/01/14 12:56:07;;;;;;;;;;;;;;;9.35;100.00;100933.06;5553599;32;34784;-74
2023/01/14 12:59:19;;;;;;;;;;;;;;;9.49;100.00;100930.75;5568398;32;34654;-73
2023/01/14 13:02:32;;;;;;;;;;;;;;;9.51;100.00;100926.16;5554933;32;34245;-74
2023/01/14 13:05:42;;;;;;;;;;;;;;;9.31;100.00;100929.88;5541267;32;34529;-74
2023/01/14 13:08:52;;;;;;;;;;;;;;;9.26;100.00;100923.34;5567765;32;34788;-74
2023/01/14 13:12:00;;;;;;;;;;;;;;;9.01;100.00;100922.19;5554657;32;34218;-73
2023/01/14 13:15:21;;;;;;;;;;;;;;;8.66;100.00;100922.88;5567659;32;34280;-74
2023/01/14 13:18:33;;;;;;;;;;;;;;;8.49;100.00;100921.75;5568120;32;33996;-73
2023/01/14 13:21:59;;;;;;;;;;;;;;;8.22;100.00;100926.91;5567857;32;34392;-73
2023/01/14 13:25:06;;;;;;;;;;;;;;;7.97;100.00;100935.37;5568257;32;34202;-73
2023/01/14 13:28:11;;;;;;;;;;;;;;;7.85;100.00;100937.28;5566836;32;34483;-72
2023/01/14 13:31:23;;;;;;;;;;;;;;;7.84;100.00;100941.72;5567105;32;34580;-71
2023/01/14 13:34:32;;;;;;;;;;;;;;;7.74;100.00;100938.25;5567045;32;34054;-71
2023/01/14 13:37:43;;;;;;;;;;;;;;;7.57;100.00;100941.53;5567956;32;34729;-72
2023/01/14 13:41:06;;;;;;;;;;;;;;;7.68;100.00;100933.53;5566757;32;33573;-73
2023/01/14 13:44:19;;;;;;;;;;;;;;;7.62;100.00;100930.56;5566939;32;33899;-72
2023/01/14 13:47:30;;;;;;;;;;;;;;;7.51;100.00;100936.78;5567985;32;35024;-72
2023/01/14 13:50:40;;;;;;;;;;;;;;;7.54;100.00;100922.50;5566695;32;33331;-72
2023/01/14 13:53:54;;;;;;;;;;;;;;;7.46;100.00;100932.88;5567804;32;33960;-72
2023/01/14 13:57:16;;;;;;;;;;;;;;;7.43;100.00;100936.62;5568204;32;33865;-72
2023/01/14 14:00:31;;;;;;;;;;;;;;;7.38;100.00;100928.28;5563873;32;34022;-72
2023/01/14 14:03:40;;;;;;;;;;;;;;;7.48;100.00;100926.50;5567857;32;34106;-72
2023/01/14 14:06:50;;;;;;;;;;;;;;;7.53;100.00;100937.50;5567522;32;34212;-72
2023/01/14 14:09:59;;;;;;;;;;;;;;;7.42;100.00;100932.31;5541129;32;34456;-72
2023/01/14 14:16:45;;;;;;;;;;;;;;;7.21;100.00;100940.28;5567634;32;34009;-71
2023/01/14 14:19:54;;;;;;;;;;;;;;;7.17;100.00;100940.69;5541236;32;34175;-71
2023/01/14 14:23:03;;;;;;;;;;;;;;;7.11;100.00;100947.34;5567586;32;34187;-72
2023/01/14 14:26:13;;;;;;;;;;;;;;;6.95;100.00;100945.19;5554177;32;35014;-72
2023/01/14 14:29:20;;;;;;;;;;;;;;;6.90;100.00;100944.75;5540907;32;32998;-72
2023/01/14 14:32:37;;;;;;;;;;;;;;;6.94;100.00;100942.66;5567588;32;33077;-72
2023/01/14 14:35:46;;;;;;;;;;;;;;;6.73;100.00;100947.12;5567431;32;34158;-72
2023/01/14 14:38:53;;;;;;;;;;;;;;;6.55;100.00;100954.78;5567248;32;34139;-72
2023/01/14 14:42:01;;;;;;;;;;;;;;;6.36;100.00;100952.84;5567243;32;34618;-72
2023/01/14 14:45:27;;;;;;;;;;;;;;;6.39;100.00;100952.56;5541610;32;33757;-72
2023/01/14 14:48:34;;;;;;;;;;;;;;;6.18;100.00;100961.41;5541134;32;32677;-72
2023/01/14 14:51:44;;;;;;;;;;;;;;;6.04;100.00;100963.38;5566887;32;34718;-72
2023/01/14 14:54:51;;;;;;;;;;;;;;;5.90;100.00;100954.94;5566717;32;35845;-72
2023/01/14 14:57:57;;;;;;;;;;;;;;;5.71;100.00;100955.53;5567030;32;35732;-72
2023/01/14 15:01:07;;;;;;;;;;;;;;;5.61;100.00;100944.06;5567084;32;34962;-73
2023/01/14 15:04:16;;;;;;;;;;;;;;;5.57;100.00;100939.97;5553793;32;34854;-72
2023/01/14 15:07:25;;;;;;;;;;;;;;;5.48;100.00;100941.56;5554351;32;34418;-73
2023/01/14 15:10:35;;;;;;;;;;;;;;;5.38;100.00;100947.66;5553039;32;33426;-73
2023/01/14 15:13:47;;;;;;;;;;;;;;;5.36;100.00;100949.59;5553270;32;34365;-72
2023/01/14 15:16:55;;;;;;;;;;;;;;;5.28;100.00;100954.63;5567020;32;34136;-72
2023/01/14 15:20:04;;;;;;;;;;;;;;;5.40;100.00;100954.50;5565860;32;34679;-73
2023/01/14 15:23:16;;;;;;;;;;;;;;;5.55;100.00;100958.53;5553608;32;34648;-73
2023/01/14 15:26:28;;;;;;;;;;;;;;;5.53;100.00;100956.97;5566092;32;34869;-72
2023/01/14 15:29:37;;;;;;;;;;;;;;;5.63;100.00;100964.03;5551352;32;33789;-72
2023/01/14 15:32:45;;;;;;;;;;;;;;;5.35;100.00;100974.22;5564836;32;34668;-72
2023/01/14 15:35:56;;;;;;;;;;;;;;;5.06;100.00;100976.47;5565701;32;35273;-73
2023/01/14 15:39:05;;;;;;;;;;;;;;;4.85;100.00;100976.31;5551601;32;34211;-72
2023/01/14 15:42:16;;;;;;;;;;;;;;;4.66;100.00;100971.63;5564677;32;34289;-73
2023/01/14 15:45:26;;;;;;;;;;;;;;;4.75;100.00;100975.34;5564810;32;34200;-72
2023/01/14 15:48:39;;;;;;;;;;;;;;;4.59;100.00;100974.84;5564829;32;34258;-72
2023/01/14 15:51:48;;;;;;;;;;;;;;;4.53;100.00;100977.91;5552618;32;33387;-72
2023/01/14 15:55:06;;;;;;;;;;;;;;;4.45;100.00;100965.38;5565996;32;34425;-72
2023/01/14 15:58:28;;;;;;;;;;;;;;;4.34;100.00;100967.94;5552350;32;34786;-72
2023/01/14 16:01:52;;;;;;;;;;;;;;;4.25;100.00;100977.34;5550968;32;33195;-72
2023/01/14 16:05:40;;;;;;;;;;;;;;;4.14;100.00;100968.56;5566654;32;34979;-72
2023/01/14 16:08:47;;;;;;;;;;;;;;;4.07;100.00;100975.19;5477021;32;34207;-72
2023/01/14 16:11:55;;;;;;;;;;;;;;;3.98;100.00;100989.84;5477187;32;34008;-72
2023/01/14 16:15:03;;;;;;;;;;;;;;;3.91;100.00;100983.38;5463706;32;33511;-72
2023/01/14 16:18:16;;;;;;;;;;;;;;;3.85;100.00;100989.87;5489296;32;33872;-73
2023/01/14 16:21:23;;;;;;;;;;;;;;;3.77;100.00;100983.53;5489099;32;34347;-72
2023/01/14 16:24:31;;;;;;;;;;;;;;;3.65;100.00;100977.34;5489540;32;34246;-73
2023/01/14 16:27:40;;;;;;;;;;;;;;;3.55;100.00;100978.94;5489363;32;33944;-73
2023/01/14 16:30:51;;;;;;;;;;;;;;;3.46;100.00;100985.69;5489268;32;34141;-73
2023/01/14 16:33:58;;;;;;;;;;;;;;;3.41;100.00;100979.06;5489114;32;34336;-73
2023/01/14 16:37:05;;;;;;;;;;;;;;;3.33;100.00;100979.63;5489379;32;34963;-73
2023/01/14 16:40:40;;;;;;;;;;;;;;;3.25;100.00;100978.47;5553768;32;34749;-72
2023/01/14 16:43:49;;;;;;;;;;;;;;;3.15;100.00;100974.81;5554075;32;32704;-73
2023/01/14 16:46:58;;;;;;;;;;;;;;;3.05;100.00;100972.81;5555191;32;33889;-73
2023/01/14 16:50:06;;;;;;;;;;;;;;;3.01;100.00;100965.25;5541874;32;33036;-72
2023/01/14 16:53:14;;;;;;;;;;;;;;;2.96;100.00;100967.34;5568619;32;34248;-73
2023/01/14 16:56:22;;;;;;;;;;;;;;;2.87;100.00;100965.38;5555238;32;34877;-73